London Corbin Airport Magee Field London US
ICAO: KLOZ
IATA: LOZ
Category: Medium
Scheduled Services: No

Elevation: 1212 ft
TransAlt. 18000 ft.

Airport Communications:
ASOS:119.075
INDIANAPOLIS CNTR:121.325
LOUISVILLE RDO:122.2
CTAF/UNICOM:123

KLOZ Zoom In..

Runways:

(A) RW 06 length 5751 ft width 150 ft
ILS 110.90 / hdg 57

(B) RW 24 length 5751 ft width 150 ft
---- / hdg 237

Location; KLOZ
Day. 24 / Time. 01.53 Zulu
* Altimeter: 30.11
* Temperature: 03° c. 37.4°f.
* Wind from: 290° Speed 08 kn.
Dewpoint: -01° c.
Visibility: 10 Statute Miles.
Clouds: Few 2800 ft.
Clouds: Overcast 3500 ft.

KLOZ 240153Z AUTO 29008KT 10SM FEW028 OVC035 03/M01 A3011 RMK AO2 RAB06E18B26E35 SLP201 P0000 T00331011


Wind From 290°
Speed 08 kn.

YouTube Music Video
 
jpsmedia.com for Web Design  worldairports.se 2018   terms of use